createdAt,value
2017-10-30T00:00:19.090Z,98578.69
2017-10-30T00:02:46.758Z,98590.89
2017-10-30T00:05:14.427Z,98573.56
2017-10-30T00:07:42.245Z,98573.77
2017-10-30T00:10:09.908Z,98580.03
2017-10-30T00:12:37.576Z,98565.33
2017-10-30T00:15:05.236Z,98569.36
2017-10-30T00:17:32.836Z,98607.98
2017-10-30T00:20:00.444Z,98595.67
2017-10-30T00:22:28.087Z,98580.34
2017-10-30T00:24:55.752Z,98579.56
2017-10-30T00:27:23.364Z,98594.88
2017-10-30T00:29:51.015Z,98592.39
2017-10-30T00:32:18.664Z,98593.33
2017-10-30T00:34:46.262Z,98592.13
2017-10-30T00:37:13.935Z,98589.23
2017-10-30T00:39:41.594Z,98577.22
2017-10-30T00:42:09.265Z,98589.05
2017-10-30T00:44:36.920Z,98576.53
2017-10-30T00:47:04.587Z,98569.91
2017-10-30T00:49:32.185Z,98560.02
2017-10-30T00:51:59.838Z,98581.64
2017-10-30T00:54:27.435Z,98570.78
2017-10-30T00:56:55.038Z,98578.64
2017-10-30T00:59:22.696Z,98561.30
2017-10-30T01:01:50.351Z,98550.12
2017-10-30T01:04:17.951Z,98568.36
2017-10-30T01:06:45.588Z,98553.87
2017-10-30T01:09:13.195Z,98594.31
2017-10-30T01:11:40.804Z,98558.67
2017-10-30T01:14:08.475Z,98591.96
2017-10-30T01:16:36.140Z,98590.51
2017-10-30T01:19:03.795Z,98600.64
2017-10-30T01:21:31.449Z,98602.92
2017-10-30T01:23:59.051Z,98620.52
2017-10-30T01:26:26.718Z,98611.00
2017-10-30T01:28:54.373Z,98615.55
2017-10-30T01:31:21.969Z,98629.41
2017-10-30T01:33:49.636Z,98633.54
2017-10-30T01:36:17.361Z,98637.70
2017-10-30T01:38:44.960Z,98628.80
2017-10-30T01:41:12.623Z,98660.63
2017-10-30T01:43:40.290Z,98651.55
2017-10-30T01:46:07.879Z,98657.54
2017-10-30T01:48:35.488Z,98650.70
2017-10-30T01:51:03.127Z,98671.17
2017-10-30T01:53:30.719Z,98666.37
2017-10-30T01:55:58.379Z,98689.00
2017-10-30T01:58:26.055Z,98696.94
2017-10-30T02:00:53.760Z,98706.73
2017-10-30T02:03:21.366Z,98688.55
2017-10-30T02:05:49.018Z,98713.03
2017-10-30T02:08:16.673Z,98725.02
2017-10-30T02:10:44.266Z,98731.51
2017-10-30T02:13:11.973Z,98733.02
2017-10-30T02:15:39.633Z,98744.98
2017-10-30T02:18:07.264Z,98746.08
2017-10-30T02:20:34.992Z,98749.27
2017-10-30T02:25:37.806Z,98753.97
2017-10-30T02:28:05.476Z,98748.89
2017-10-30T02:30:33.082Z,98751.59
2017-10-30T02:33:00.740Z,98754.38
2017-10-30T02:35:28.411Z,98758.50
2017-10-30T02:37:56.143Z,98766.94
2017-10-30T02:40:23.793Z,98767.55
2017-10-30T02:42:51.464Z,98763.50
2017-10-30T02:45:19.080Z,98760.64
2017-10-30T02:47:46.797Z,98774.64
2017-10-30T02:50:14.403Z,98768.01
2017-10-30T02:52:42.017Z,98768.17
2017-10-30T02:55:09.671Z,98780.11
2017-10-30T02:57:37.330Z,98793.02
2017-10-30T03:00:04.929Z,98776.47
2017-10-30T03:02:32.587Z,98806.39
2017-10-30T03:05:00.259Z,98827.84
2017-10-30T03:07:27.920Z,98826.98
2017-10-30T03:09:55.651Z,98818.52
2017-10-30T03:12:23.311Z,98819.38
2017-10-30T03:14:50.971Z,98812.91
2017-10-30T03:17:18.745Z,98794.80
2017-10-30T03:19:46.415Z,98812.23
2017-10-30T03:22:14.024Z,98802.61
2017-10-30T03:24:41.719Z,98800.70
2017-10-30T03:27:09.329Z,98829.98
2017-10-30T03:29:36.932Z,98840.20
2017-10-30T03:32:04.587Z,98836.61
2017-10-30T03:34:32.203Z,98836.56
2017-10-30T03:36:59.808Z,98847.01
2017-10-30T03:39:27.517Z,98857.64
2017-10-30T03:41:55.107Z,98861.71
2017-10-30T03:44:22.716Z,98861.84
2017-10-30T03:46:50.383Z,98873.50
2017-10-30T03:49:17.988Z,98876.50
2017-10-30T03:51:45.578Z,98876.13
2017-10-30T03:54:13.293Z,98893.51
2017-10-30T03:56:40.896Z,98882.05
2017-10-30T03:59:08.552Z,98886.59
2017-10-30T04:01:36.255Z,98894.30
2017-10-30T04:04:03.922Z,98888.52
2017-10-30T04:06:31.527Z,98889.44
2017-10-30T04:08:59.171Z,98884.08
2017-10-30T04:11:26.769Z,98893.47
2017-10-30T04:13:54.365Z,98897.72
2017-10-30T04:16:22.027Z,98905.87
2017-10-30T04:18:49.624Z,98907.29
2017-10-30T04:21:17.280Z,98894.84
2017-10-30T04:23:44.923Z,98894.67
2017-10-30T04:26:12.527Z,98890.69
2017-10-30T04:28:40.180Z,98894.91
2017-10-30T04:31:07.831Z,98892.67
2017-10-30T04:33:35.488Z,98897.50
2017-10-30T04:36:03.154Z,98899.58
2017-10-30T04:38:30.852Z,98900.36
2017-10-30T04:40:58.511Z,98901.05
2017-10-30T04:43:26.100Z,98910.95
2017-10-30T04:45:53.762Z,98906.55
2017-10-30T04:48:21.449Z,98903.22
2017-10-30T04:50:49.050Z,98911.44
2017-10-30T04:53:16.700Z,98908.27
2017-10-30T04:55:44.305Z,98901.28
2017-10-30T04:58:11.963Z,98906.19
2017-10-30T05:00:39.601Z,98911.64
2017-10-30T05:03:07.187Z,98926.81
2017-10-30T05:05:34.788Z,98916.13
2017-10-30T05:08:02.468Z,98925.98
2017-10-30T05:10:30.059Z,98916.95
2017-10-30T05:12:57.711Z,98938.27
2017-10-30T05:15:25.363Z,98938.95
2017-10-30T05:17:52.972Z,98944.05
2017-10-30T05:20:20.583Z,98931.95
2017-10-30T05:22:48.229Z,98944.66
2017-10-30T05:25:16.828Z,98962.97
2017-10-30T05:27:44.424Z,98959.28
2017-10-30T05:30:12.083Z,98964.42
2017-10-30T05:32:39.687Z,98980.54
2017-10-30T05:35:07.289Z,99004.34
2017-10-30T05:37:35.000Z,99005.61
2017-10-30T05:40:02.674Z,99025.63
2017-10-30T05:42:30.294Z,99001.44
2017-10-30T05:44:58.004Z,99009.63
2017-10-30T05:47:25.604Z,99018.74
2017-10-30T05:49:53.195Z,99026.22
2017-10-30T05:52:20.835Z,99046.71
2017-10-30T05:54:48.493Z,99042.77
2017-10-30T05:57:16.095Z,99055.28
2017-10-30T05:59:43.736Z,99047.61
2017-10-30T06:02:11.346Z,99070.71
2017-10-30T06:04:38.939Z,99054.52
2017-10-30T06:07:06.657Z,99055.36
2017-10-30T06:09:34.347Z,99057.34
2017-10-30T06:12:02.854Z,99065.89
2017-10-30T06:14:30.515Z,99083.09
2017-10-30T06:16:58.108Z,99082.94
2017-10-30T06:19:25.712Z,99091.86
2017-10-30T06:21:53.424Z,99094.33
2017-10-30T06:24:21.095Z,99079.77
2017-10-30T06:26:48.687Z,99094.04
2017-10-30T06:29:16.348Z,99092.70
2017-10-30T06:31:43.948Z,99106.48
2017-10-30T06:34:11.619Z,99110.94
2017-10-30T06:36:39.276Z,99120.67
2017-10-30T06:39:06.875Z,99122.36
2017-10-30T06:41:34.470Z,99130.97
2017-10-30T06:44:02.133Z,99131.77
2017-10-30T06:46:29.803Z,99144.77
2017-10-30T06:48:57.399Z,99155.66
2017-10-30T06:51:25.112Z,99152.74
2017-10-30T06:53:52.704Z,99160.81
2017-10-30T06:56:20.404Z,99162.35
2017-10-30T06:58:48.978Z,99191.17
2017-10-30T07:01:16.662Z,99181.80
2017-10-30T07:03:44.327Z,99178.91
2017-10-30T07:06:12.099Z,99200.84
2017-10-30T07:08:39.705Z,99206.39
2017-10-30T07:11:07.335Z,99197.06
2017-10-30T07:13:35.060Z,99204.72
2017-10-30T07:16:02.691Z,99209.72
2017-10-30T07:18:30.305Z,99231.96
2017-10-30T07:20:57.966Z,99221.62
2017-10-30T07:23:25.595Z,99238.51
2017-10-30T07:25:53.219Z,99237.48
2017-10-30T07:28:21.009Z,99239.86
2017-10-30T07:30:48.676Z,99237.14
2017-10-30T07:33:16.851Z,99234.61
2017-10-30T07:35:44.671Z,99242.07
2017-10-30T07:38:12.340Z,99239.89
2017-10-30T07:40:39.956Z,99246.36
2017-10-30T07:43:07.636Z,99267.83
2017-10-30T07:45:35.263Z,99265.61
2017-10-30T07:48:02.891Z,99268.95
2017-10-30T07:50:30.547Z,99260.36
2017-10-30T07:52:58.320Z,99262.92
2017-10-30T07:55:25.951Z,99279.69
2017-10-30T07:57:53.689Z,99292.15
2017-10-30T08:00:21.499Z,99272.80
2017-10-30T08:02:49.125Z,99276.77
2017-10-30T08:05:16.809Z,99279.62
2017-10-30T08:07:44.504Z,99293.42
2017-10-30T08:10:12.165Z,99304.68
2017-10-30T08:12:39.832Z,99306.41
2017-10-30T08:15:07.453Z,99307.20
2017-10-30T08:17:35.080Z,99298.69
2017-10-30T08:20:02.765Z,99328.33
2017-10-30T08:22:30.587Z,99322.55
2017-10-30T08:24:58.227Z,99314.72
2017-10-30T08:27:25.896Z,99302.29
2017-10-30T08:29:53.529Z,99305.95
2017-10-30T08:32:21.147Z,99314.61
2017-10-30T08:34:48.830Z,99312.17
2017-10-30T08:37:16.447Z,99313.39
2017-10-30T08:39:44.116Z,99333.36
2017-10-30T08:42:11.788Z,99348.37
2017-10-30T08:44:39.491Z,99351.13
2017-10-30T08:47:07.108Z,99351.50
2017-10-30T08:49:34.875Z,99346.43
2017-10-30T08:52:02.486Z,99368.19
2017-10-30T08:54:30.099Z,99369.73
2017-10-30T08:56:57.788Z,99357.36
2017-10-30T08:59:25.415Z,99375.70
2017-10-30T09:01:53.051Z,99368.20
2017-10-30T09:04:20.788Z,99372.93
2017-10-30T09:06:48.478Z,99366.42
2017-10-30T09:09:16.121Z,99360.20
2017-10-30T09:11:43.866Z,99370.71
2017-10-30T09:14:11.496Z,99376.52
2017-10-30T09:16:39.115Z,99376.02
2017-10-30T09:19:06.849Z,99385.80
2017-10-30T09:21:34.485Z,99384.43
2017-10-30T09:24:02.112Z,99399.55
2017-10-30T09:26:29.875Z,99388.96
2017-10-30T09:28:57.483Z,99398.48
2017-10-30T09:31:25.100Z,99403.94
2017-10-30T09:33:52.781Z,99411.39
2017-10-30T09:36:20.409Z,99403.89
2017-10-30T09:38:48.084Z,99424.02
2017-10-30T09:41:15.840Z,99402.36
2017-10-30T09:43:43.560Z,99410.39
2017-10-30T09:46:11.249Z,99414.85
2017-10-30T09:48:38.969Z,99413.64
2017-10-30T09:51:06.591Z,99431.91
2017-10-30T09:53:34.215Z,99421.45
2017-10-30T09:56:02.048Z,99422.47
2017-10-30T09:58:29.682Z,99424.53
2017-10-30T10:00:57.307Z,99424.81
2017-10-30T10:03:24.995Z,99442.76
2017-10-30T10:05:52.689Z,99426.31
2017-10-30T10:08:20.433Z,99440.52
2017-10-30T10:10:48.229Z,99422.94
2017-10-30T10:13:15.932Z,99427.86
2017-10-30T10:15:43.651Z,99434.58
2017-10-30T10:18:11.332Z,99420.23
2017-10-30T10:20:38.955Z,99438.02
2017-10-30T10:23:06.611Z,99442.17
2017-10-30T10:25:34.388Z,99448.09
2017-10-30T10:28:02.096Z,99444.94
2017-10-30T10:30:29.856Z,99468.17
2017-10-30T10:32:57.535Z,99463.57
2017-10-30T10:35:25.155Z,99455.02
2017-10-30T10:37:52.787Z,99475.58
2017-10-30T10:40:20.468Z,99463.23
2017-10-30T10:42:48.094Z,99471.84
2017-10-30T10:45:15.792Z,99465.16
2017-10-30T10:47:43.488Z,99473.52
2017-10-30T10:50:11.115Z,99473.83
2017-10-30T10:52:38.723Z,99476.66
2017-10-30T10:55:06.390Z,99475.05
2017-10-30T10:57:34.088Z,99487.05
2017-10-30T11:00:01.721Z,99465.15
2017-10-30T11:02:29.528Z,99500.84
2017-10-30T11:04:57.151Z,99496.39
2017-10-30T11:07:24.773Z,99477.59
2017-10-30T11:09:52.442Z,99490.18
2017-10-30T11:12:20.061Z,99484.76
2017-10-30T11:14:47.684Z,99486.20
2017-10-30T11:17:15.380Z,99503.80
2017-10-30T11:19:43.060Z,99496.45
2017-10-30T11:22:10.684Z,99512.52
2017-10-30T11:24:38.352Z,99504.31
2017-10-30T11:27:06.033Z,99503.84
2017-10-30T11:29:33.724Z,99508.95
2017-10-30T11:32:01.404Z,99527.41
2017-10-30T11:34:29.028Z,99514.19
2017-10-30T11:36:56.700Z,99516.23
2017-10-30T11:39:24.378Z,99524.44
2017-10-30T11:41:51.981Z,99529.14
2017-10-30T11:44:19.660Z,99539.97
2017-10-30T11:46:47.390Z,99537.13
2017-10-30T11:49:15.012Z,99521.63
2017-10-30T11:51:42.618Z,99538.77
2017-10-30T11:54:10.310Z,99547.40
2017-10-30T11:56:37.920Z,99531.67
2017-10-30T11:59:05.536Z,99545.73
2017-10-30T12:01:33.252Z,99536.17
2017-10-30T12:04:00.860Z,99551.50
2017-10-30T12:06:28.529Z,99551.62
2017-10-30T12:08:56.254Z,99551.33
2017-10-30T12:11:23.945Z,99548.23
2017-10-30T12:13:51.613Z,99539.21
2017-10-30T12:16:19.339Z,99543.16
2017-10-30T12:18:46.959Z,99544.98
2017-10-30T12:21:14.572Z,99563.05
2017-10-30T12:23:42.268Z,99552.22
2017-10-30T12:26:09.939Z,99550.52
2017-10-30T12:28:37.606Z,99555.38
2017-10-30T12:31:05.331Z,99539.06
2017-10-30T12:33:32.945Z,99540.20
2017-10-30T12:36:00.599Z,99562.66
2017-10-30T12:38:28.275Z,99561.41
2017-10-30T12:40:55.879Z,99561.92
2017-10-30T12:43:23.487Z,99582.41
2017-10-30T12:45:51.244Z,99582.19
2017-10-30T12:48:18.912Z,99600.88
2017-10-30T12:50:46.515Z,99588.28
2017-10-30T12:53:14.184Z,99584.38
2017-10-30T12:55:41.856Z,99581.51
2017-10-30T12:58:09.467Z,99598.84
2017-10-30T13:00:37.128Z,99598.14
2017-10-30T13:03:04.904Z,99591.30
2017-10-30T13:05:32.511Z,99609.12
2017-10-30T13:08:00.247Z,99605.73
2017-10-30T13:10:27.859Z,99616.06
2017-10-30T13:12:55.491Z,99602.31
2017-10-30T13:15:23.191Z,99600.64
2017-10-30T13:17:50.807Z,99625.66
2017-10-30T13:20:18.501Z,99606.82
2017-10-30T13:22:46.236Z,99623.23
2017-10-30T13:25:13.892Z,99630.76
2017-10-30T13:27:41.512Z,99634.61
2017-10-30T13:30:09.163Z,99629.64
2017-10-30T13:32:36.781Z,99642.45
2017-10-30T13:35:04.381Z,99641.98
2017-10-30T13:37:32.113Z,99665.81
2017-10-30T13:39:59.727Z,99655.12
2017-10-30T13:42:27.330Z,99654.38
2017-10-30T13:44:54.996Z,99653.87
2017-10-30T13:47:22.603Z,99659.16
2017-10-30T13:49:50.277Z,99662.20
2017-10-30T13:52:17.932Z,99663.06
2017-10-30T13:54:45.539Z,99650.56
2017-10-30T13:57:13.207Z,99649.82
2017-10-30T13:59:40.920Z,99671.36
2017-10-30T14:02:08.528Z,99681.28
2017-10-30T14:04:36.196Z,99676.39
2017-10-30T14:07:03.870Z,99682.82
2017-10-30T14:09:31.476Z,99690.23
2017-10-30T14:11:59.168Z,99683.00
2017-10-30T14:14:26.887Z,99689.11
2017-10-30T14:16:54.487Z,99702.73
2017-10-30T14:19:22.099Z,99697.53
2017-10-30T14:21:49.752Z,99691.32
2017-10-30T14:24:17.396Z,99695.77
2017-10-30T14:26:46.028Z,99704.03
2017-10-30T14:29:13.735Z,99708.36
2017-10-30T14:31:41.357Z,99704.17
2017-10-30T14:34:08.984Z,99708.59
2017-10-30T14:36:36.712Z,99703.40
2017-10-30T14:39:04.448Z,99725.33
2017-10-30T14:41:32.145Z,99709.58
2017-10-30T14:43:59.830Z,99706.45
2017-10-30T14:46:27.512Z,99721.16
2017-10-30T14:48:55.135Z,99719.78
2017-10-30T14:51:22.805Z,99735.53
2017-10-30T14:53:50.472Z,99728.45
2017-10-30T14:56:18.144Z,99726.31
2017-10-30T14:58:45.872Z,99724.13
2017-10-30T15:01:13.483Z,99730.80
2017-10-30T15:03:41.163Z,99729.02
2017-10-30T15:06:08.880Z,99731.98
2017-10-30T15:08:36.491Z,99736.82
2017-10-30T15:11:04.231Z,99739.49
2017-10-30T15:13:31.947Z,99736.70
2017-10-30T15:15:59.585Z,99740.83
2017-10-30T15:18:27.217Z,99744.56
2017-10-30T15:20:55.012Z,99752.66
2017-10-30T15:23:22.688Z,99759.28
2017-10-30T15:25:50.357Z,99753.20
2017-10-30T15:28:18.083Z,99758.41
2017-10-30T15:30:45.708Z,99761.02
2017-10-30T15:33:13.339Z,99764.63
2017-10-30T15:35:40.992Z,99768.81
2017-10-30T15:38:08.604Z,99767.76
2017-10-30T15:40:36.284Z,99773.17
2017-10-30T15:43:04.004Z,99772.76
2017-10-30T15:45:31.687Z,99782.91
2017-10-30T15:47:59.296Z,99786.09
2017-10-30T15:50:27.127Z,99787.97
2017-10-30T15:52:54.752Z,99792.50
2017-10-30T15:55:22.399Z,99802.48
2017-10-30T15:57:50.124Z,99805.14
2017-10-30T16:00:17.731Z,99806.37
2017-10-30T16:02:45.339Z,99813.16
2017-10-30T16:05:13.012Z,99821.32
2017-10-30T16:07:40.634Z,99828.28
2017-10-30T16:10:08.248Z,99823.77
2017-10-30T16:12:36.005Z,99834.90
2017-10-30T16:15:03.648Z,99833.06
2017-10-30T16:17:31.258Z,99842.28
2017-10-30T16:19:58.996Z,99842.09
2017-10-30T16:22:26.720Z,99852.18
2017-10-30T16:24:54.424Z,99851.16
2017-10-30T16:27:22.171Z,99850.39
2017-10-30T16:29:49.888Z,99858.63
2017-10-30T16:32:17.582Z,99866.34
2017-10-30T16:34:45.240Z,99878.76
2017-10-30T16:37:12.843Z,99869.30
2017-10-30T16:39:40.451Z,99872.82
2017-10-30T16:42:08.188Z,99876.00
2017-10-30T16:44:35.834Z,99874.99
2017-10-30T16:47:03.459Z,99873.41
2017-10-30T16:49:31.183Z,99884.47
2017-10-30T16:51:58.803Z,99891.33
2017-10-30T16:54:26.471Z,99894.61
2017-10-30T16:56:54.135Z,99885.98
2017-10-30T16:59:21.776Z,99891.66
2017-10-30T17:01:49.405Z,99906.25
2017-10-30T17:04:17.176Z,99910.61
2017-10-30T17:06:44.865Z,99914.05
2017-10-30T17:09:12.524Z,99908.69
2017-10-30T17:11:40.258Z,99908.50
2017-10-30T17:14:07.937Z,99907.18
2017-10-30T17:16:35.556Z,99926.78
2017-10-30T17:19:03.219Z,99922.61
2017-10-30T17:21:30.891Z,99928.73
2017-10-30T17:24:10.299Z,99934.50
2017-10-30T17:26:37.971Z,99940.12
2017-10-30T17:29:05.579Z,99931.75
2017-10-30T17:31:33.312Z,99942.91
2017-10-30T17:34:00.915Z,99937.20
2017-10-30T17:36:28.545Z,99938.04
2017-10-30T17:38:56.232Z,99948.34
2017-10-30T17:41:23.831Z,99951.27
2017-10-30T17:43:51.509Z,99943.48
2017-10-30T17:46:19.197Z,99947.07
2017-10-30T17:48:46.870Z,99952.34
2017-10-30T17:51:14.479Z,99947.92
2017-10-30T17:53:42.213Z,99942.45
2017-10-30T17:56:09.891Z,99946.23
2017-10-30T17:58:37.557Z,99944.89
2017-10-30T18:01:05.225Z,99950.69
2017-10-30T18:03:32.848Z,99952.38
2017-10-30T18:06:00.452Z,99949.07
2017-10-30T18:08:29.071Z,99950.84
2017-10-30T18:10:56.776Z,99961.64
2017-10-30T18:13:24.448Z,99952.33
2017-10-30T18:15:52.116Z,99955.97
2017-10-30T18:18:19.780Z,99955.95
2017-10-30T18:20:47.386Z,99954.95
2017-10-30T18:23:15.043Z,99953.88
2017-10-30T18:25:42.666Z,99962.16
2017-10-30T18:28:10.340Z,99964.82
2017-10-30T18:30:38.068Z,99967.00
2017-10-30T18:33:05.703Z,99962.04
2017-10-30T18:35:33.362Z,99973.02
2017-10-30T18:38:01.079Z,99978.73
2017-10-30T18:40:28.759Z,99978.97
2017-10-30T18:42:56.376Z,99977.44
2017-10-30T18:45:24.121Z,99979.28
2017-10-30T18:47:51.796Z,99982.91
2017-10-30T18:50:19.460Z,99994.79
2017-10-30T18:52:47.143Z,100008.30
2017-10-30T18:55:14.769Z,100003.94
2017-10-30T18:57:42.387Z,100017.42
2017-10-30T19:00:10.148Z,100023.53
2017-10-30T19:02:37.758Z,100029.31
2017-10-30T19:05:05.384Z,100026.15
2017-10-30T19:07:33.082Z,100030.80
2017-10-30T19:10:00.756Z,100025.94
2017-10-30T19:12:28.436Z,100030.92
2017-10-30T19:14:56.101Z,100041.55
2017-10-30T19:17:23.703Z,100046.23
2017-10-30T19:19:51.330Z,100044.71
2017-10-30T19:22:19.007Z,100056.17
2017-10-30T19:24:46.620Z,100052.52
2017-10-30T19:27:14.232Z,100049.73
2017-10-30T19:29:41.895Z,100052.52
2017-10-30T19:32:09.624Z,100057.53
2017-10-30T19:34:37.281Z,100053.12
2017-10-30T19:37:04.963Z,100051.13
2017-10-30T19:39:32.571Z,100059.24
2017-10-30T19:42:00.200Z,100065.08
2017-10-30T19:44:27.924Z,100063.58
2017-10-30T19:46:55.599Z,100070.02
2017-10-30T19:49:23.232Z,100066.89
2017-10-30T19:51:50.888Z,100070.86
2017-10-30T19:54:18.494Z,100084.97
2017-10-30T19:56:46.112Z,100080.13
2017-10-30T19:59:13.780Z,100080.24
2017-10-30T20:01:41.398Z,100091.44
2017-10-30T20:04:09.015Z,100096.91
2017-10-30T20:06:42.054Z,100091.70
2017-10-30T20:09:15.308Z,100092.89
2017-10-30T20:11:48.598Z,100101.20
2017-10-30T20:14:16.224Z,100107.67
2017-10-30T20:16:43.842Z,100114.48
2017-10-30T20:19:11.568Z,100111.42
2017-10-30T20:21:39.188Z,100108.59
2017-10-30T20:24:06.806Z,100105.68
2017-10-30T20:26:34.539Z,100111.77
2017-10-30T20:29:02.170Z,100106.72
2017-10-30T20:31:29.836Z,100104.50
2017-10-30T20:33:57.528Z,100102.88
2017-10-30T20:36:25.154Z,100105.83
2017-10-30T20:38:52.772Z,100114.85
2017-10-30T20:41:20.440Z,100101.00
2017-10-30T20:43:48.116Z,100103.45
2017-10-30T20:46:15.819Z,100102.34
2017-10-30T20:48:43.490Z,100109.19
2017-10-30T20:51:11.107Z,100113.22
2017-10-30T20:53:38.756Z,100114.82
2017-10-30T20:56:06.420Z,100115.75
2017-10-30T20:58:34.119Z,100113.48
2017-10-30T21:01:01.799Z,100119.18
2017-10-30T21:03:29.464Z,100106.44
2017-10-30T21:05:57.076Z,100110.84
2017-10-30T21:08:24.723Z,100108.70
2017-10-30T21:10:52.396Z,100110.45
2017-10-30T21:13:20.076Z,100117.77
2017-10-30T21:15:47.745Z,100109.99
2017-10-30T21:18:15.412Z,100119.88
2017-10-30T21:20:43.027Z,100127.14
2017-10-30T21:23:10.687Z,100125.45
2017-10-30T21:25:38.359Z,100120.71
2017-10-30T21:28:05.969Z,100121.78
2017-10-30T21:30:33.587Z,100125.56
2017-10-30T21:33:01.302Z,100127.58
2017-10-30T21:35:28.997Z,100129.92
2017-10-30T21:37:56.712Z,100132.81
2017-10-30T21:40:24.390Z,100131.41
2017-10-30T21:42:51.991Z,100132.50
2017-10-30T21:45:19.603Z,100135.72
2017-10-30T21:47:47.360Z,100139.86
2017-10-30T21:50:14.976Z,100138.08
2017-10-30T21:52:42.594Z,100142.30
2017-10-30T21:55:10.331Z,100139.54
2017-10-30T21:57:37.943Z,100140.70
2017-10-30T22:00:05.608Z,100145.34
2017-10-30T22:02:33.275Z,100150.86
2017-10-30T22:05:00.892Z,100149.58
2017-10-30T22:07:28.560Z,100149.25
2017-10-30T22:09:56.199Z,100152.70
2017-10-30T22:12:23.807Z,100157.27
2017-10-30T22:14:51.479Z,100167.48
2017-10-30T22:17:19.338Z,100165.87
2017-10-30T22:19:47.028Z,100159.59
2017-10-30T22:22:14.641Z,100161.63
2017-10-30T22:24:42.310Z,100162.84
2017-10-30T22:27:09.924Z,100157.63
2017-10-30T22:29:37.540Z,100162.00
2017-10-30T22:32:05.216Z,100156.94
2017-10-30T22:34:32.833Z,100161.88
2017-10-30T22:37:00.501Z,100158.45
2017-10-30T22:39:28.156Z,100165.79
2017-10-30T22:41:55.770Z,100158.61
2017-10-30T22:44:23.448Z,100168.22
2017-10-30T22:46:51.103Z,100167.06
2017-10-30T22:49:18.769Z,100171.39
2017-10-30T22:51:46.513Z,100168.84
2017-10-30T22:54:14.171Z,100166.64
2017-10-30T22:56:41.791Z,100173.42
2017-10-30T22:59:09.407Z,100170.83
2017-10-30T23:01:37.141Z,100171.99
2017-10-30T23:04:04.751Z,100170.53
2017-10-30T23:06:32.425Z,100174.82
2017-10-30T23:09:00.156Z,100173.26
2017-10-30T23:11:27.940Z,100158.48
2017-10-30T23:13:55.551Z,100172.66
2017-10-30T23:16:23.205Z,100180.25
2017-10-30T23:18:50.873Z,100188.05
2017-10-30T23:21:18.484Z,100179.47
2017-10-30T23:23:46.170Z,100183.51
2017-10-30T23:26:13.795Z,100186.93
2017-10-30T23:28:41.403Z,100183.19
2017-10-30T23:31:09.074Z,100180.25
2017-10-30T23:33:36.739Z,100180.99
2017-10-30T23:36:04.409Z,100182.64
2017-10-30T23:38:32.068Z,100185.03
2017-10-30T23:40:59.674Z,100189.17
2017-10-30T23:43:27.367Z,100187.28
2017-10-30T23:45:55.028Z,100186.70
2017-10-30T23:48:22.642Z,100189.56
2017-10-30T23:50:50.270Z,100185.38
2017-10-30T23:53:17.936Z,100179.32
2017-10-30T23:55:45.548Z,100184.00
2017-10-30T23:58:13.156Z,100193.34
